Wenzhou, China
Current Conditions -  °F | °C
As of 6:00 PM on Tuesday 27 Jan 2015 (Local Time) from ZSNB Reporting Station
Broken Clouds Broken Clouds  
Wind Chill: 37°   Ceiling: 2000
Heat Index: 43°   Visibility: 6mi
Dew Point: 34°   Wind: 11mph
Humidity: 70%   Direction: 20°NNE
Pressure: 30.36"   Gusts: NA
Location:  28.02°N, 120.65°E
Report Text: ZSNB 271000Z 02005MPS 350V050 9999 BKN020 06/01 Q1028 NOSIG
Loading
Personal Weather Stations






























Interactive Weather Map New forecast layout! Learn more

10-Day Weather Forecast

Advertisements
Track Severe Weather on mobile